Thunder radar more information blitzortung!


Radar de pluja more information rain snow radar


Visita la nostra xarxa de llocs de meteo:

Template documentation
and downloads

And another site



No particular awareness of the weather is required.    There are no Weather-warnings

Pagina Historial Weather Underground text

Diari Resum Juliol 27, 2017 Unitats:  Mètric    Imperial   Tant
« Previous Dia
SegĂźent Dia »
Diari Setmana Mensual Anual Personalitzada
  Maxima: Minima: Media:
Temperatura: -17.8 °C -7.8 °C -2.6 °C
Punt de rosada: -17.8 °C -10 °C -8.1 °C
Humitat: Humidity % 42 % 57 %
Wind Speed: 0 km/h 0 km/h 9.7 km/h
RĂ fegues de vent: 0 km/h - -
Vent:- - SSW
Pression baro: 0 hPa 34164.7 hPa -
Precipitacions: 0 mm    
Historical Graphs
 
 
Dades de taula per Juliol 27, 2017
Temps Temperatura Punt de rosada Pression baro Vent Wind Speed RĂ fegues de vent Humitat Rainfall Rate (Hourly)
-17.8 °C -17.8 °C 0 hPa Calm     Humidity % 0 mm
00:01 -5.7 °C -9.8 °C 34327.3 hPa NE 3.1 km/h 3.1 km/h 63 % 0 mm
00:05 -7.4 °C -9.8 °C 34327.3 hPa Calm     76 % 0 mm
00:15 -7.6 °C -9.9 °C 34327.3 hPa Calm   5.1 km/h 76 % 0 mm
00:25 -7.6 °C -9.9 °C 34327.3 hPa Calm     76 % 0 mm
00:35 -7.6 °C -9.8 °C 34327.3 hPa SW 2.6 km/h 2.6 km/h 77 % 0 mm
00:45 -7.7 °C -9.9 °C 34327.3 hPa Calm   2.6 km/h 77 % 0 mm
00:55 -7.7 °C -10 °C 34327.3 hPa Calm   2.6 km/h 77 % 0 mm
01:05 -7.7 °C -9.9 °C 34327.3 hPa SSW 2.6 km/h 2.6 km/h 78 % 0 mm
01:15 -7.8 °C -9.9 °C 34327.3 hPa Calm     78 % 0 mm
01:25 -7.8 °C -9.9 °C 34327.3 hPa Calm     78 % 0 mm
01:35 -7.8 °C -9.9 °C 34327.3 hPa Calm     78 % 0 mm
01:45 -7.8 °C -9.9 °C 34327.3 hPa Calm     78 % 0 mm
01:55 -7.8 °C -9.9 °C 34327.3 hPa Calm     78 % 0 mm
02:05 -7.7 °C -9.8 °C 34327.3 hPa Calm     79 % 0 mm
02:15 -7.6 °C -9.6 °C 34327.3 hPa Calm     79 % 0 mm
02:25 -7.4 °C -9.6 °C 34327.3 hPa Calm   5.1 km/h 78 % 0 mm
02:35 -7.4 °C -9.6 °C 34327.3 hPa SSW 2.6 km/h 5.1 km/h 78 % 0 mm
02:45 -7.3 °C -9.5 °C 34327.3 hPa SW 2.6 km/h 5.1 km/h 78 % 0 mm
02:55 -7.4 °C -9.6 °C 34327.3 hPa Calm   5.1 km/h 78 % 0 mm
03:05 -7.3 °C -9.4 °C 34327.3 hPa WSW 2.6 km/h 5.1 km/h 78 % 0 mm
03:15 -7.2 °C -9.6 °C 34327.3 hPa WSW 2.6 km/h 5.1 km/h 76 % 0 mm
03:25 -6.9 °C -9.3 °C 34293.4 hPa Calm   5.1 km/h 76 % 0 mm
03:35 -6.5 °C -9.2 °C 34327.3 hPa South 2.6 km/h 5.1 km/h 74 % 0 mm
03:45 -6.1 °C -9 °C 34327.3 hPa ENE 2.6 km/h 5.1 km/h 72 % 0 mm
03:55 -5.8 °C -8.9 °C 34327.3 hPa NE 2.6 km/h 5.1 km/h 70 % 0 mm
04:05 -5.6 °C -9 °C 34327.3 hPa ENE 5.1 km/h 5.1 km/h 68 % 0 mm
04:15 -5.1 °C -8.7 °C 34327.3 hPa ENE 2.6 km/h 2.6 km/h 67 % 0 mm
04:25 -4.8 °C -8.5 °C 34327.3 hPa Calm   2.6 km/h 66 % 0 mm
04:35 -4.7 °C -8.6 °C 34327.3 hPa ENE 2.6 km/h 7.7 km/h 65 % 0 mm
04:45 -4.4 °C -8.6 °C 34327.3 hPa SE 2.6 km/h 7.7 km/h 63 % 0 mm
04:55 -4.3 °C -8.7 °C 34327.3 hPa SSE 2.6 km/h 7.7 km/h 62 % 0 mm
05:05 -4 °C -8.2 °C 34327.3 hPa ESE 2.6 km/h 7.7 km/h 63 % 0 mm
05:15 -4.3 °C -8.7 °C 34327.3 hPa East 7.7 km/h 12.9 km/h 61 % 0 mm
05:25 -4 °C -8.4 °C 34293.4 hPa SE 5.1 km/h 7.7 km/h 61 % 0 mm
10:25 -3.8 °C -8.6 °C 34293.4 hPa SSE 11.9 km/h 11.9 km/h 59 % 0 mm
10:30 -3.4 °C -8.2 °C 34293.4 hPa SE 6.3 km/h   59 % 0 mm
10:35 -3.7 °C -8.4 °C 34293.4 hPa ESE 9 km/h 9 km/h 59 % 0 mm
10:40 -3.3 °C -8.1 °C 34293.4 hPa ESE 3.1 km/h 3.7 km/h 59 % 0 mm
10:45 -3.3 °C -8.2 °C 34293.4 hPa SSW 9 km/h 9 km/h 58 % 0 mm
10:50 -3 °C -8.1 °C 34327.3 hPa SW 3.7 km/h 3.7 km/h 57 % 0 mm
10:55 -2.8 °C -8.1 °C 34327.3 hPa NE 15 km/h 15 km/h 56 % 0 mm
11:00 -3 °C -8.3 °C 34327.3 hPa East 9.3 km/h 9.3 km/h 56 % 0 mm
11:05 -3.1 °C -8.4 °C 34327.3 hPa NW 6 km/h 6 km/h 56 % 0 mm
11:06 -3.1 °C -8.4 °C 34327.3 hPa NW 6 km/h 6 km/h 56 % 0 mm
11:11 -2.8 °C -8.1 °C 34327.3 hPa SW 11.1 km/h 11.1 km/h 56 % 0 mm
11:16 -2.8 °C -8.4 °C 34327.3 hPa NNW 15 km/h 15 km/h 54 % 0 mm
11:21 -2.5 °C -8.3 °C 34327.3 hPa SSE 6 km/h 6 km/h 53 % 0 mm
11:26 -2.3 °C -8.3 °C 34327.3 hPa SW 11.9 km/h 11.9 km/h 52 % 0 mm
11:31 -1.9 °C -7.9 °C 34327.3 hPa WSW 7.6 km/h 7.6 km/h 52 % 0 mm
11:36 -2.1 °C -8.3 °C 34293.4 hPa South 6 km/h 6 km/h 51 % 0 mm
11:41 -2.3 °C -8.4 °C 34293.4 hPa SW 15.3 km/h 15.3 km/h 51 % 0 mm
11:46 -1.7 °C -8.1 °C 34293.4 hPa SW 6 km/h 6 km/h 50 % 0 mm
11:51 -1.7 °C -8.2 °C 34293.4 hPa WSW 15 km/h 15 km/h 49 % 0 mm
11:56 -1.3 °C -8.1 °C 34293.4 hPa SW 19.2 km/h 19.2 km/h 48 % 0 mm
12:01 -1.2 °C -8.1 °C 34293.4 hPa WSW 6 km/h 6 km/h 47 % 0 mm
12:06 -0.9 °C -7.9 °C 34293.4 hPa SSW 9 km/h 9 km/h 47 % 0 mm
12:11 -1.3 °C -8.2 °C 34293.4 hPa WNW 20.9 km/h 20.9 km/h 47 % 0 mm
12:16 -1.4 °C -8.6 °C 34293.4 hPa SW 12.2 km/h 12.2 km/h 46 % 0 mm
12:21 -1.4 °C -8.5 °C 34293.4 hPa South 17.9 km/h 17.9 km/h 46 % 0 mm
12:26 -1.3 °C -8.4 °C 34293.4 hPa South 15.3 km/h 15.3 km/h 46 % 0 mm
12:31 -0.9 °C -8.3 °C 34293.4 hPa SSW 17.9 km/h 17.9 km/h 45 % 0 mm
12:36 -0.8 °C -8.2 °C 34293.4 hPa SW 9.3 km/h 9.3 km/h 45 % 0 mm
12:41 -0.7 °C -8.1 °C 34293.4 hPa SSE 11.9 km/h 11.9 km/h 45 % 0 mm
12:46 -0.7 °C -8.3 °C 34293.4 hPa WSW 20.9 km/h 20.9 km/h 44 % 0 mm
12:51 -0.3 °C -7.9 °C 34256.2 hPa SW 15 km/h 15 km/h 44 % 0 mm
12:56 -0.1 °C -7.7 °C 34256.2 hPa West 9 km/h 9 km/h 44 % 0 mm
13:01 -0.2 °C -7.9 °C 34256.2 hPa SW 11.9 km/h 11.9 km/h 44 % 0 mm
13:06 -0.1 °C -8.1 °C 34256.2 hPa SSE 9.8 km/h 9.8 km/h 42 % 0 mm
13:11 -0.3 °C -8.3 °C 34256.2 hPa South 11.9 km/h 11.9 km/h 42 % 0 mm
13:16 -0.2 °C -8.2 °C 34256.2 hPa NE 17.9 km/h 17.9 km/h 42 % 0 mm
13:21 -0.1 °C -7.9 °C 34222.3 hPa SSW 6 km/h 6 km/h 43 % 0 mm
13:26 0.4 °C -7.5 °C 34222.3 hPa South 9 km/h 9 km/h 43 % 0 mm
13:31 0.7 °C -7.4 °C 34222.3 hPa SSE 11.1 km/h 11.1 km/h 42 % 0 mm
13:36 0 °C -7.9 °C 34256.2 hPa ESE 18.3 km/h 18.3 km/h 43 % 0 mm
13:41 -0.2 °C -7.9 °C 34256.2 hPa WSW 20.9 km/h 20.9 km/h 44 % 0 mm
13:46 0.2 °C -7.5 °C 34256.2 hPa WNW 12.7 km/h 12.7 km/h 44 % 0 mm
13:51 0.5 °C -7.2 °C 34256.2 hPa SSW 16.1 km/h 16.1 km/h 44 % 0 mm
13:56 0.4 °C -7.4 °C 34256.2 hPa SSW 15 km/h 15 km/h 43 % 0 mm
14:01 0.6 °C -7.3 °C 34256.2 hPa SW 15 km/h 15 km/h 43 % 0 mm
14:06 0.3 °C -7.6 °C 34256.2 hPa SW 15.3 km/h 15.3 km/h 43 % 0 mm
14:11 0.1 °C -7.7 °C 34256.2 hPa SW 20.9 km/h 20.9 km/h 43 % 0 mm
14:16 0 °C -7.9 °C 34256.2 hPa SSW 20.9 km/h 20.9 km/h 43 % 0 mm
14:21 0 °C -7.7 °C 34256.2 hPa WSW 20.9 km/h 20.9 km/h 44 % 0 mm
14:26 0.4 °C -7.3 °C 34256.2 hPa SW 19.2 km/h 19.2 km/h 44 % 0 mm
14:31 -0.1 °C -7.7 °C 34256.2 hPa SW 20.9 km/h 20.9 km/h 44 % 0 mm
14:36 0.1 °C -7.6 °C 34256.2 hPa WSW 23.8 km/h 23.8 km/h 44 % 0 mm
14:41 0.1 °C -7.6 °C 34256.2 hPa SSW 20.9 km/h 20.9 km/h 44 % 0 mm
14:46 0.5 °C -7.2 °C 34256.2 hPa WSW 15 km/h 15 km/h 44 % 0 mm
14:51 0.5 °C -7.2 °C 34256.2 hPa SSE 6 km/h 6 km/h 44 % 0 mm
14:56 0.6 °C -7.3 °C 34256.2 hPa WSW 15 km/h 15 km/h 43 % 0 mm
15:01 0.6 °C -7.1 °C 34256.2 hPa WNW 11.9 km/h 11.9 km/h 44 % 0 mm
15:06 0.6 °C -7.2 °C 34256.2 hPa WSW 25.1 km/h 25.1 km/h 44 % 0 mm
15:11 0.4 °C -7.3 °C 34256.2 hPa West 23.8 km/h 23.8 km/h 44 % 0 mm
15:16 0.4 °C -7.3 °C 34256.2 hPa SW 9 km/h 9 km/h 44 % 0 mm
15:21 0.6 °C -7.1 °C 34222.3 hPa SW 17.9 km/h 17.9 km/h 44 % 0 mm
15:26 0.4 °C -7.3 °C 34222.3 hPa SSW 15 km/h 15 km/h 44 % 0 mm
15:31 0.7 °C -7.3 °C 34222.3 hPa WSW 23.8 km/h 23.8 km/h 43 % 0 mm
15:36 0.4 °C -7.3 °C 34222.3 hPa South 23.8 km/h 23.8 km/h 44 % 0 mm
15:41 0.1 °C -7.6 °C 34222.3 hPa ESE 15 km/h 15 km/h 44 % 0 mm
15:46 0.4 °C -7.3 °C 34222.3 hPa SSW 17.9 km/h 17.9 km/h 44 % 0 mm
15:51 0.2 °C -7.3 °C 34222.3 hPa South 11.9 km/h 11.9 km/h 45 % 0 mm
15:56 0.2 °C -7.3 °C 34222.3 hPa SW 23.8 km/h 23.8 km/h 45 % 0 mm
16:01 0.3 °C -7.2 °C 34222.3 hPa SW 20.9 km/h 20.9 km/h 45 % 0 mm
16:06 0.1 °C -7.4 °C 34222.3 hPa SE 20.3 km/h 20.3 km/h 45 % 0 mm
16:11 0.3 °C -7.2 °C 34222.3 hPa SW 20.9 km/h 20.9 km/h 45 % 0 mm
16:16 0.2 °C -7.3 °C 34222.3 hPa SW 9 km/h 9.3 km/h 45 % 0 mm
16:21 0.2 °C -7.3 °C 34222.3 hPa SW 11.9 km/h 11.9 km/h 45 % 0 mm
16:26 0.3 °C -7.2 °C 34222.3 hPa SSW 17.9 km/h 17.9 km/h 45 % 0 mm
16:31 0.1 °C -7.3 °C 34222.3 hPa South 27.2 km/h 27.2 km/h 45 % 0 mm
16:36 0.1 °C -7.6 °C 34222.3 hPa West 14 km/h 14 km/h 44 % 0 mm
16:41 0.1 °C -7.6 °C 34222.3 hPa SSE 20.9 km/h 20.9 km/h 44 % 0 mm
16:46 0.2 °C -7.5 °C 34222.3 hPa SSE 23.8 km/h 23.8 km/h 44 % 0 mm
16:51 0.3 °C -7.6 °C 34222.3 hPa West 6 km/h 6.3 km/h 43 % 0 mm
16:56 0.4 °C -7.5 °C 34222.3 hPa SSW 15 km/h 15 km/h 43 % 0 mm
17:01 0.1 °C -7.7 °C 34222.3 hPa South 17.9 km/h 17.9 km/h 43 % 0 mm
17:06 0.3 °C -7.6 °C 34198.6 hPa SW 11.9 km/h 11.9 km/h 43 % 0 mm
17:11 0.2 °C -7.9 °C 34198.6 hPa SSW 16.1 km/h 16.1 km/h 42 % 0 mm
17:16 0.2 °C -7.9 °C 34198.6 hPa South 15 km/h 15 km/h 42 % 0 mm
17:21 0.4 °C -7.7 °C 34198.6 hPa South 15 km/h 15 km/h 42 % 0 mm
17:26 0.2 °C -7.9 °C 34198.6 hPa South 17.9 km/h 17.9 km/h 42 % 0 mm
17:31 0.2 °C -7.9 °C 34198.6 hPa SSW 11.9 km/h 11.9 km/h 42 % 0 mm
17:32 0.2 °C -7.9 °C 34198.6 hPa ESE 11.9 km/h 11.9 km/h 42 % 0 mm
17:37 0.2 °C -7.9 °C 34198.6 hPa SW 19.2 km/h 19.2 km/h 42 % 0 mm
17:42 0.1 °C -7.9 °C 34198.6 hPa South 11.9 km/h 11.9 km/h 42 % 0 mm
17:47 0.3 °C -7.6 °C 34198.6 hPa SW 11.9 km/h 11.9 km/h 43 % 0 mm
17:52 -0.2 °C -8 °C 34198.6 hPa WSW 12.7 km/h 12.7 km/h 43 % 0 mm
17:57 -0.2 °C -7.9 °C 34198.6 hPa SSE 15 km/h 15 km/h 44 % 0 mm
18:02 -0.1 °C -7.7 °C 34198.6 hPa SW 20.3 km/h 20.3 km/h 44 % 0 mm
18:07 -0.3 °C -7.9 °C 34198.6 hPa SSW 16.6 km/h 16.6 km/h 44 % 0 mm
18:12 -0.3 °C -7.7 °C 34198.6 hPa SW 17.9 km/h 17.9 km/h 45 % 0 mm
18:17 -0.4 °C -7.8 °C 34198.6 hPa South 11.9 km/h 11.9 km/h 45 % 0 mm
18:22 -0.5 °C -7.9 °C 34198.6 hPa SW 20.9 km/h 20.9 km/h 45 % 0 mm
18:27 -0.6 °C -7.9 °C 34198.6 hPa South 29.8 km/h 29.8 km/h 45 % 0 mm
18:32 -0.7 °C -7.9 °C 34198.6 hPa SSW 23.8 km/h 23.8 km/h 46 % 0 mm
18:37 -0.7 °C -7.9 °C 34198.6 hPa SW 20.9 km/h 20.9 km/h 46 % 0 mm
18:42 -0.8 °C -7.9 °C 34198.6 hPa SE 15.6 km/h 15.6 km/h 46 % 0 mm
18:47 -0.8 °C -7.9 °C 34198.6 hPa South 20.9 km/h 20.9 km/h 46 % 0 mm
18:52 -1 °C -8.2 °C 34198.6 hPa SW 20.9 km/h 20.9 km/h 46 % 0 mm
18:57 -0.9 °C -8.1 °C 34198.6 hPa SSW 17.9 km/h 17.9 km/h 46 % 0 mm
19:02 -0.9 °C -8.1 °C 34198.6 hPa WSW 17.9 km/h 17.9 km/h 46 % 0 mm
19:07 -0.9 °C -8.1 °C 34198.6 hPa South 20.9 km/h 20.9 km/h 46 % 0 mm
19:12 -0.9 °C -8.1 °C 34198.6 hPa SSW 15 km/h 15 km/h 46 % 0 mm
19:17 -0.9 °C -8.1 °C 34198.6 hPa SSW 20.9 km/h 20.9 km/h 46 % 0 mm
19:22 -1.1 °C -8.3 °C 34198.6 hPa South 11.9 km/h 11.9 km/h 46 % 0 mm
19:27 -1.2 °C -8.1 °C 34198.6 hPa South 11.9 km/h 11.9 km/h 47 % 0 mm
19:32 -1.2 °C -8.2 °C 34198.6 hPa SSW 12.7 km/h 12.7 km/h 47 % 0 mm
19:37 -1.3 °C -8.3 °C 34198.6 hPa SW 11.9 km/h 11.9 km/h 47 % 0 mm
19:42 -1.4 °C -8.3 °C 34198.6 hPa WSW 11.9 km/h 11.9 km/h 47 % 0 mm
19:47 -1.4 °C -8.4 °C 34198.6 hPa SSW 11.9 km/h 11.9 km/h 47 % 0 mm
19:52 -1.5 °C -8.4 °C 34198.6 hPa SW 9 km/h 9 km/h 47 % 0 mm
19:57 -1.6 °C -8.5 °C 34198.6 hPa SW 16.1 km/h 16.1 km/h 47 % 0 mm
20:02 -1.7 °C -8.3 °C 34198.6 hPa SW 11.1 km/h 11.1 km/h 49 % 0 mm
20:07 -1.8 °C -8.2 °C 34164.7 hPa West 15 km/h 15 km/h 50 % 0 mm
20:12 -1.9 °C -8.2 °C 34164.7 hPa SW 9 km/h 9 km/h 50 % 0 mm
20:17 -1.9 °C -8.1 °C 34164.7 hPa SSW 15 km/h 15 km/h 51 % 0 mm
20:22 -2 °C -8.2 °C 34164.7 hPa SSW 11.9 km/h 11.9 km/h 51 % 0 mm
20:27 -2.1 °C -8.1 °C 34164.7 hPa SW 12.2 km/h   52 % 0 mm
20:32 -2.1 °C -7.9 °C 34164.7 hPa WSW 6 km/h 6.3 km/h 53 % 0 mm
20:33 -2.1 °C -7.9 °C 34164.7 hPa WSW 6 km/h 6.3 km/h 53 % 0 mm
20:35 -4.8 °C -7.2 °C 34327.3 hPa Calm   2.6 km/h 77 % 0 mm
20:38 -2.2 °C -8 °C 34198.6 hPa SSW 9 km/h 9 km/h 53 % 0 mm
20:43 -2.2 °C -7.9 °C 34198.6 hPa SSW 8 km/h 8 km/h 54 % 0 mm
20:45 -4.9 °C -7.1 °C 34327.3 hPa NNE 5.1 km/h 7.7 km/h 78 % 0 mm
20:48 -2.4 °C -8 °C 34198.6 hPa WSW 9 km/h 9 km/h 54 % 0 mm
20:53 -2.5 °C -7.9 °C 34198.6 hPa SW 6 km/h 6 km/h 55 % 0 mm
20:55 -4.9 °C -7.2 °C 34327.3 hPa NE 2.6 km/h 5.1 km/h 78 % 0 mm
20:58 -2.6 °C -7.9 °C 34198.6 hPa SW 9 km/h 9 km/h 56 % 0 mm
21:03 -2.7 °C -7.9 °C 34198.6 hPa West 17.9 km/h 17.9 km/h 56 % 0 mm
21:05 -5 °C -7.1 °C 34327.3 hPa Calm   2.6 km/h 79 % 0 mm
21:08 -2.7 °C -7.9 °C 34198.6 hPa SSW 11.9 km/h 11.9 km/h 57 % 0 mm
21:13 -2.8 °C -7.8 °C 34198.6 hPa SW 9 km/h 9 km/h 58 % 0 mm
21:15 -5.1 °C -7.1 °C 34327.3 hPa Calm   2.6 km/h 80 % 0 mm
21:18 -2.9 °C -7.9 °C 34198.6 hPa SW 11.9 km/h 11.9 km/h 58 % 0 mm
21:23 -2.9 °C -7.9 °C 34198.6 hPa SW 9 km/h 9.3 km/h 58 % 0 mm
21:25 -5.1 °C -7.3 °C 34327.3 hPa NE 2.6 km/h 2.6 km/h 79 % 0 mm
21:28 -3.1 °C -7.9 °C 34198.6 hPa SSW 8.5 km/h 8.5 km/h 59 % 0 mm
21:33 -3.1 °C -7.9 °C 34198.6 hPa SW 9 km/h 9 km/h 59 % 0 mm
21:35 -5.2 °C -7.3 °C 34327.3 hPa Calm   2.6 km/h 79 % 0 mm
21:38 -3.2 °C -8 °C 34222.3 hPa SW 9 km/h 9 km/h 59 % 0 mm
21:43 -3.3 °C -7.9 °C 34222.3 hPa WSW 6 km/h 6 km/h 60 % 0 mm
21:45 -5.3 °C -7.3 °C 34327.3 hPa Calm   2.6 km/h 80 % 0 mm
21:48 -3.3 °C -8 °C 34222.3 hPa SW 6 km/h 6 km/h 60 % 0 mm
21:53 -3.3 °C -8 °C 34222.3 hPa SW 6 km/h 6 km/h 60 % 0 mm
21:55 -5.3 °C -7.3 °C 34293.4 hPa Calm     80 % 0 mm
21:58 -3.4 °C -7.9 °C 34222.3 hPa WSW 3.1 km/h 3.7 km/h 61 % 0 mm
22:03 -3.4 °C -7.9 °C 34222.3 hPa SW 6 km/h 6 km/h 61 % 0 mm
22:05 -5.3 °C -7.2 °C 34327.3 hPa Calm     81 % 0 mm
22:08 -3.4 °C -7.9 °C 34256.2 hPa WSW 6 km/h 6 km/h 61 % 0 mm
22:13 -3.6 °C -7.9 °C 34256.2 hPa SW 5.6 km/h   62 % 0 mm
22:15 -5.3 °C -7.2 °C 34327.3 hPa Calm   2.6 km/h 81 % 0 mm
22:18 -3.6 °C -7.9 °C 34256.2 hPa SW 6 km/h 6 km/h 62 % 0 mm
22:23 -3.6 °C -7.9 °C 34256.2 hPa SW 6 km/h 6 km/h 62 % 0 mm
22:25 -5.4 °C -7.3 °C 34327.3 hPa Calm     81 % 0 mm
22:28 -3.6 °C -7.9 °C 34256.2 hPa SW 3.7 km/h 3.7 km/h 62 % 0 mm
22:33 -3.7 °C -8 °C 34256.2 hPa SW 6 km/h 6 km/h 62 % 0 mm
22:35 -5.4 °C -7.2 °C 34327.3 hPa Calm     82 % 0 mm
22:38 -3.8 °C -7.9 °C 34293.4 hPa SW 6 km/h 6 km/h 63 % 0 mm
22:43 -3.8 °C -8 °C 34293.4 hPa SW 3.1 km/h 3.1 km/h 63 % 0 mm
22:45 -5.4 °C -7.2 °C 34327.3 hPa Calm   2.6 km/h 82 % 0 mm
22:48 -3.8 °C -7.9 °C 34293.4 hPa SSW 6 km/h 6 km/h 64 % 0 mm
22:53 -3.9 °C -7.7 °C 34222.3 hPa Calm     66 % 0 mm
22:55 -5.4 °C -7.2 °C 34327.3 hPa Calm   2.6 km/h 82 % 0 mm
22:58 -3.9 °C -7.7 °C 34222.3 hPa WSW 3.1 km/h   66 % 0 mm
23:03 -3.9 °C -7.7 °C 34222.3 hPa WSW 7.6 km/h 7.6 km/h 66 % 0 mm
23:05 -5.5 °C -7.3 °C 34327.3 hPa Calm     82 % 0 mm
23:08 -4 °C -7.8 °C 34256.2 hPa WSW 9 km/h 9 km/h 66 % 0 mm
23:13 -4.1 °C -7.7 °C 34256.2 hPa SW 3.1 km/h 3.1 km/h 67 % 0 mm
23:15 -5.5 °C -7.3 °C 34327.3 hPa Calm     82 % 0 mm
23:18 -4.1 °C -7.6 °C 34256.2 hPa SW 3.1 km/h   68 % 0 mm
23:23 -4.1 °C -7.4 °C 34256.2 hPa Calm     69 % 0 mm
23:25 -5.5 °C -7.2 °C 34327.3 hPa Calm     83 % 0 mm
23:28 -4.2 °C -7.6 °C 34256.2 hPa Calm     69 % 0 mm
23:33 -4.2 °C -7.4 °C 34256.2 hPa NNE 3.1 km/h   70 % 0 mm
23:35 -5.6 °C -7.2 °C 34293.4 hPa NE 2.6 km/h 5.1 km/h 83 % 0 mm
23:38 -4.2 °C -7.3 °C 34293.4 hPa Calm     71 % 0 mm
23:43 -4.3 °C -7.4 °C 34293.4 hPa Calm     71 % 0 mm
23:45 -5.6 °C -7.3 °C 34293.4 hPa Calm     83 % 0 mm
23:48 -4.3 °C -7.3 °C 34293.4 hPa NNW 3.1 km/h   72 % 0 mm
23:53 -4.3 °C -7.1 °C 34293.4 hPa Calm     73 % 0 mm
23:55 -5.7 °C -7.4 °C 34293.4 hPa Calm     83 % 0 mm
23:58 -4.3 °C -7.1 °C 34293.4 hPa Calm     73 % 0 mm
Meteo Sesrovires
Elogis d' Weather Underground - 2 mb

Guio original per  Jim McMurry - jmcmurry@mwt.net Adaptat per a la plantilla per  Wim van der Kuil - Leuven-Template.eu

Trobareu la nostra informacio del temps tambe a:

Weather Underground

AWEKAS